createdAt,value
2023-03-06T00:01:03.449Z,100214.77
2023-03-06T00:03:33.744Z,100216.00
2023-03-06T00:06:02.657Z,100214.20
2023-03-06T00:08:31.119Z,100215.59
2023-03-06T00:10:59.733Z,100213.78
2023-03-06T00:13:30.776Z,100215.52
2023-03-06T00:16:03.319Z,100214.61
2023-03-06T00:18:31.671Z,100212.11
2023-03-06T00:21:00.026Z,100215.98
2023-03-06T00:23:28.793Z,100213.64
2023-03-06T00:25:57.226Z,100216.09
2023-03-06T00:28:25.810Z,100208.15
2023-03-06T00:30:54.203Z,100205.83
2023-03-06T00:33:22.638Z,100206.15
2023-03-06T00:35:51.246Z,100202.98
2023-03-06T00:38:19.683Z,100202.42
2023-03-06T00:40:48.097Z,100205.59
2023-03-06T00:43:16.494Z,100200.48
2023-03-06T00:45:45.034Z,100200.65
2023-03-06T00:48:13.525Z,100196.39
2023-03-06T00:50:42.065Z,100200.11
2023-03-06T00:53:13.450Z,100195.91
2023-03-06T00:55:45.713Z,100197.89
2023-03-06T00:58:14.168Z,100198.41
2023-03-06T01:00:42.951Z,100201.05
2023-03-06T01:03:12.536Z,100199.10
2023-03-06T01:05:41.313Z,100195.36
2023-03-06T01:08:09.896Z,100197.67
2023-03-06T01:10:40.244Z,100198.89
2023-03-06T01:13:08.756Z,100197.33
2023-03-06T01:15:37.409Z,100195.23
2023-03-06T01:18:06.496Z,100197.33
2023-03-06T01:20:38.568Z,100197.86
2023-03-06T01:23:07.055Z,100195.41
2023-03-06T01:25:35.575Z,100191.89
2023-03-06T01:28:04.261Z,100194.54
2023-03-06T01:30:32.799Z,100194.89
2023-03-06T01:33:02.501Z,100192.25
2023-03-06T01:35:31.166Z,100193.50
2023-03-06T01:37:59.623Z,100192.63
2023-03-06T01:40:31.937Z,100186.98
2023-03-06T01:43:26.089Z,100186.42
2023-03-06T01:46:34.470Z,100186.58
2023-03-06T01:49:41.829Z,100182.84
2023-03-06T01:52:17.236Z,100186.52
2023-03-06T01:54:52.257Z,100181.02
2023-03-06T01:57:28.824Z,100180.30
2023-03-06T02:00:06.846Z,100177.48
2023-03-06T02:02:51.773Z,100180.52
2023-03-06T02:05:20.598Z,100173.95
2023-03-06T02:07:51.053Z,100166.16
2023-03-06T02:10:21.125Z,100170.19
2023-03-06T02:12:51.670Z,100164.91
2023-03-06T02:15:24.812Z,100160.14
2023-03-06T02:17:55.999Z,100161.95
2023-03-06T02:20:39.744Z,100156.09
2023-03-06T02:23:20.321Z,100163.52
2023-03-06T02:25:52.497Z,100168.13
2023-03-06T02:28:24.157Z,100171.98
2023-03-06T02:30:55.372Z,100167.20
2023-03-06T02:33:28.100Z,100171.80
2023-03-06T02:36:02.564Z,100170.50
2023-03-06T02:38:49.403Z,100170.31
2023-03-06T02:41:18.799Z,100175.93
2023-03-06T02:43:49.943Z,100177.33
2023-03-06T02:46:18.696Z,100179.59
2023-03-06T02:48:47.470Z,100180.46
2023-03-06T02:51:16.020Z,100179.23
2023-03-06T02:53:45.110Z,100177.87
2023-03-06T02:56:13.753Z,100173.46
2023-03-06T02:58:43.357Z,100180.19
2023-03-06T03:01:12.464Z,100174.71
2023-03-06T03:03:41.102Z,100178.05
2023-03-06T03:06:10.115Z,100179.14
2023-03-06T03:08:38.823Z,100181.99
2023-03-06T03:11:09.402Z,100184.12
2023-03-06T03:13:44.506Z,100180.42
2023-03-06T03:16:17.164Z,100184.67
2023-03-06T03:18:48.166Z,100183.09
2023-03-06T03:21:18.587Z,100182.56
2023-03-06T03:23:48.509Z,100180.98
2023-03-06T03:26:21.298Z,100184.87
2023-03-06T03:28:55.763Z,100186.48
2023-03-06T03:31:24.405Z,100183.86
2023-03-06T03:33:53.018Z,100192.86
2023-03-06T03:36:23.137Z,100201.17
2023-03-06T03:38:51.583Z,100206.33
2023-03-06T03:41:20.392Z,100208.41
2023-03-06T03:43:48.927Z,100212.17
2023-03-06T03:46:17.561Z,100199.30
2023-03-06T03:48:46.070Z,100201.94
2023-03-06T03:51:16.727Z,100203.17
2023-03-06T03:53:49.427Z,100207.41
2023-03-06T03:56:20.325Z,100206.00
2023-03-06T03:58:57.283Z,100206.52
2023-03-06T04:01:26.459Z,100206.86
2023-03-06T04:03:55.241Z,100208.83
2023-03-06T04:06:24.150Z,100209.19
2023-03-06T04:08:53.314Z,100210.60
2023-03-06T04:11:22.125Z,100208.67
2023-03-06T04:13:50.717Z,100207.80
2023-03-06T04:16:19.961Z,100211.85
2023-03-06T04:18:49.207Z,100210.60
2023-03-06T04:21:17.889Z,100210.61
2023-03-06T04:23:46.520Z,100212.92
2023-03-06T04:26:15.700Z,100213.27
2023-03-06T04:28:44.968Z,100216.44
2023-03-06T04:31:13.764Z,100219.27
2023-03-06T04:33:42.388Z,100223.86
2023-03-06T04:36:34.634Z,100221.59
2023-03-06T04:39:08.325Z,100227.80
2023-03-06T04:41:36.956Z,100228.69
2023-03-06T04:44:06.235Z,100231.72
2023-03-06T04:46:35.464Z,100238.98
2023-03-06T04:49:04.282Z,100240.58
2023-03-06T04:51:32.667Z,100240.05
2023-03-06T04:54:01.220Z,100239.69
2023-03-06T04:56:30.717Z,100243.03
2023-03-06T04:58:59.124Z,100250.10
2023-03-06T05:01:27.560Z,100248.85
2023-03-06T05:03:56.246Z,100254.30
2023-03-06T05:06:24.783Z,100262.41
2023-03-06T05:08:53.793Z,100265.73
2023-03-06T05:11:22.411Z,100267.84
2023-03-06T05:13:51.726Z,100266.75
2023-03-06T05:16:20.854Z,100272.21
2023-03-06T05:18:50.691Z,100272.19
2023-03-06T05:21:19.530Z,100275.16
2023-03-06T05:23:52.356Z,100270.68
2023-03-06T05:26:20.903Z,100276.62
2023-03-06T05:28:49.429Z,100276.95
2023-03-06T05:31:19.078Z,100284.17
2023-03-06T05:33:48.081Z,100290.85
2023-03-06T05:36:16.819Z,100293.69
2023-03-06T05:38:45.553Z,100292.82
2023-03-06T05:41:14.511Z,100294.80
2023-03-06T05:43:43.128Z,100300.03
2023-03-06T05:46:11.732Z,100302.66
2023-03-06T05:48:40.383Z,100302.47
2023-03-06T05:51:11.206Z,100300.86
2023-03-06T05:53:39.646Z,100306.69
2023-03-06T05:56:11.689Z,100307.39
2023-03-06T05:58:40.490Z,100311.10
2023-03-06T06:01:13.056Z,100314.08
2023-03-06T06:03:41.582Z,100315.67
2023-03-06T06:06:12.628Z,100315.13
2023-03-06T06:08:41.992Z,100316.02
2023-03-06T06:11:12.796Z,100317.38
2023-03-06T06:13:41.567Z,100312.11
2023-03-06T06:16:16.019Z,100311.58
2023-03-06T06:18:45.181Z,100310.44
2023-03-06T06:21:14.843Z,100309.98
2023-03-06T06:23:43.573Z,100308.88
2023-03-06T06:26:12.084Z,100310.06
2023-03-06T06:28:40.591Z,100314.42
2023-03-06T06:31:12.506Z,100323.90
2023-03-06T06:33:41.763Z,100325.77
2023-03-06T06:36:19.511Z,100328.39
2023-03-06T06:38:48.490Z,100331.91
2023-03-06T06:44:08.771Z,100335.52
2023-03-06T06:49:26.480Z,100336.45
2023-03-06T06:51:54.984Z,100335.02
2023-03-06T06:54:23.441Z,100332.65
2023-03-06T06:56:51.954Z,100334.16
2023-03-06T06:59:23.733Z,100333.94
2023-03-06T07:01:53.194Z,100333.68
2023-03-06T07:04:21.994Z,100333.39
2023-03-06T07:06:50.445Z,100335.23
2023-03-06T07:09:20.299Z,100337.77
2023-03-06T07:11:48.696Z,100345.78
2023-03-06T07:14:17.200Z,100347.14
2023-03-06T07:16:45.718Z,100349.70
2023-03-06T07:19:14.310Z,100346.73
2023-03-06T07:21:42.772Z,100348.30
2023-03-06T07:24:11.271Z,100354.05
2023-03-06T07:26:39.666Z,100352.34
2023-03-06T07:29:08.114Z,100352.94
2023-03-06T07:31:36.505Z,100351.23
2023-03-06T07:34:05.238Z,100354.55
2023-03-06T07:36:34.686Z,100353.96
2023-03-06T07:39:03.805Z,100355.48
2023-03-06T07:41:32.167Z,100352.95
2023-03-06T07:44:00.737Z,100350.52
2023-03-06T07:46:29.189Z,100346.50
2023-03-06T07:48:58.456Z,100347.19
2023-03-06T07:51:26.946Z,100349.25
2023-03-06T07:53:55.613Z,100348.70
2023-03-06T07:56:24.141Z,100348.52
2023-03-06T07:58:52.572Z,100351.26
2023-03-06T08:01:24.491Z,100352.06
2023-03-06T08:03:54.119Z,100347.91
2023-03-06T08:06:28.644Z,100346.36
2023-03-06T08:08:58.037Z,100342.50
2023-03-06T08:11:30.429Z,100347.89
2023-03-06T08:13:59.721Z,100343.70
2023-03-06T08:16:30.673Z,100343.40
2023-03-06T08:18:59.879Z,100345.04
2023-03-06T08:21:28.790Z,100347.27
2023-03-06T08:23:57.490Z,100345.11
2023-03-06T08:26:30.331Z,100349.07
2023-03-06T08:29:01.388Z,100348.41
2023-03-06T08:31:35.437Z,100347.16
2023-03-06T08:34:08.401Z,100347.08
2023-03-06T08:36:37.031Z,100346.41
2023-03-06T08:39:06.776Z,100347.36
2023-03-06T08:41:36.224Z,100348.94
2023-03-06T08:44:05.652Z,100345.27
2023-03-06T08:46:34.916Z,100347.09
2023-03-06T08:49:04.453Z,100347.23
2023-03-06T08:51:33.390Z,100341.60
2023-03-06T08:54:01.841Z,100344.13
2023-03-06T08:56:34.006Z,100343.55
2023-03-06T08:59:05.664Z,100343.58
2023-03-06T09:01:37.896Z,100346.96
2023-03-06T09:04:10.634Z,100349.05
2023-03-06T09:06:41.668Z,100350.58
2023-03-06T09:09:10.332Z,100350.33
2023-03-06T09:11:39.616Z,100352.81
2023-03-06T09:14:08.219Z,100353.75
2023-03-06T09:16:36.780Z,100357.13
2023-03-06T09:19:05.292Z,100351.03
2023-03-06T09:21:33.807Z,100352.75
2023-03-06T09:24:02.349Z,100350.11
2023-03-06T09:26:45.045Z,100348.90
2023-03-06T09:29:16.576Z,100342.83
2023-03-06T09:31:47.606Z,100343.85
2023-03-06T09:34:16.575Z,100338.73
2023-03-06T09:36:55.974Z,100335.16
2023-03-06T09:39:27.293Z,100338.63
2023-03-06T09:41:58.336Z,100342.60
2023-03-06T09:44:34.346Z,100342.71
2023-03-06T09:47:31.833Z,100344.27
2023-03-06T09:50:30.917Z,100337.59
2023-03-06T09:53:26.537Z,100332.81
2023-03-06T09:56:06.239Z,100335.29
2023-03-06T09:58:44.208Z,100334.55
2023-03-06T10:01:22.197Z,100325.77
2023-03-06T10:04:38.560Z,100321.36
2023-03-06T10:08:14.816Z,100317.45
2023-03-06T10:10:49.311Z,100315.70
2023-03-06T10:13:35.910Z,100315.49
2023-03-06T10:16:23.489Z,100311.29
2023-03-06T10:18:53.001Z,100314.56
2023-03-06T10:21:58.723Z,100313.17
2023-03-06T10:25:02.362Z,100312.14
2023-03-06T10:27:57.759Z,100305.09
2023-03-06T10:30:54.010Z,100305.32
2023-03-06T10:34:11.260Z,100312.57
2023-03-06T10:36:39.742Z,100309.50
2023-03-06T10:39:19.850Z,100312.27
2023-03-06T10:41:49.930Z,100306.96
2023-03-06T10:44:21.841Z,100312.95
2023-03-06T10:46:53.151Z,100302.81
2023-03-06T10:49:24.368Z,100296.64
2023-03-06T10:52:20.858Z,100297.66
2023-03-06T10:54:49.439Z,100291.85
2023-03-06T10:57:33.032Z,100292.60
2023-03-06T11:00:06.451Z,100290.39
2023-03-06T11:02:41.239Z,100288.00
2023-03-06T11:05:27.848Z,100285.59
2023-03-06T11:07:59.687Z,100287.52
2023-03-06T11:10:31.848Z,100289.33
2023-03-06T11:13:01.570Z,100290.41
2023-03-06T11:15:32.160Z,100286.55
2023-03-06T11:18:31.090Z,100286.86
2023-03-06T11:20:59.489Z,100289.59
2023-03-06T11:23:47.580Z,100284.46
2023-03-06T11:26:17.766Z,100286.48
2023-03-06T11:29:15.606Z,100284.80
2023-03-06T11:32:25.891Z,100283.89
2023-03-06T11:35:07.083Z,100281.16
2023-03-06T11:37:58.488Z,100282.60
2023-03-06T11:40:46.075Z,100285.23
2023-03-06T11:43:31.986Z,100282.09
2023-03-06T11:46:23.239Z,100281.64
2023-03-06T11:49:10.672Z,100279.77
2023-03-06T11:51:48.520Z,100279.60
2023-03-06T11:54:17.078Z,100275.08
2023-03-06T11:57:20.713Z,100275.37
2023-03-06T12:00:27.453Z,100278.42
2023-03-06T12:03:39.181Z,100277.42
2023-03-06T12:06:19.414Z,100277.07
2023-03-06T12:09:01.801Z,100272.14
2023-03-06T12:12:21.112Z,100270.71
2023-03-06T12:15:22.427Z,100271.24
2023-03-06T12:18:09.293Z,100265.77
2023-03-06T12:20:57.843Z,100262.31
2023-03-06T12:23:43.367Z,100260.05
2023-03-06T12:26:30.881Z,100256.81
2023-03-06T12:29:30.172Z,100257.45
2023-03-06T12:32:24.340Z,100261.10
2023-03-06T12:35:06.080Z,100255.02
2023-03-06T12:38:29.584Z,100255.96
2023-03-06T12:41:38.039Z,100252.65
2023-03-06T12:44:52.865Z,100251.67
2023-03-06T12:47:26.279Z,100249.40
2023-03-06T12:50:05.342Z,100248.78
2023-03-06T12:52:35.693Z,100249.08
2023-03-06T12:58:56.561Z,100250.53
2023-03-06T13:01:37.334Z,100249.92
2023-03-06T13:04:52.294Z,100247.88
2023-03-06T13:07:38.679Z,100245.33
2023-03-06T13:10:29.585Z,100245.10
2023-03-06T13:13:05.347Z,100246.83
2023-03-06T13:15:42.702Z,100243.17
2023-03-06T13:18:23.254Z,100245.88
2023-03-06T13:20:56.672Z,100247.27
2023-03-06T13:23:34.971Z,100245.42
2023-03-06T13:26:25.238Z,100241.23
2023-03-06T13:28:57.896Z,100243.30
2023-03-06T13:31:55.163Z,100244.29
2023-03-06T13:34:47.171Z,100239.00
2023-03-06T13:37:19.541Z,100235.89
2023-03-06T13:39:59.799Z,100236.84
2023-03-06T13:42:37.228Z,100240.68
2023-03-06T13:45:33.017Z,100243.14
2023-03-06T13:50:51.654Z,100238.83
2023-03-06T13:53:49.506Z,100240.27
2023-03-06T13:56:29.974Z,100238.17
2023-03-06T13:59:16.609Z,100235.63
2023-03-06T14:02:11.598Z,100232.70
2023-03-06T14:04:58.845Z,100236.45
2023-03-06T14:07:40.233Z,100231.06
2023-03-06T14:10:11.462Z,100235.94
2023-03-06T14:13:01.835Z,100234.33
2023-03-06T14:15:44.775Z,100241.51
2023-03-06T14:18:18.157Z,100241.69
2023-03-06T14:21:02.937Z,100243.11
2023-03-06T14:23:42.574Z,100241.05
2023-03-06T14:26:24.599Z,100244.21
2023-03-06T14:28:53.008Z,100246.43
2023-03-06T14:31:29.200Z,100249.19
2023-03-06T14:34:02.724Z,100244.92
2023-03-06T14:36:48.252Z,100242.77
2023-03-06T14:39:43.157Z,100244.02
2023-03-06T14:42:22.304Z,100243.17
2023-03-06T14:45:18.895Z,100249.31
2023-03-06T14:47:54.541Z,100245.20
2023-03-06T14:50:34.300Z,100244.31
2023-03-06T14:53:09.355Z,100247.13
2023-03-06T14:55:37.917Z,100242.36
2023-03-06T14:58:39.250Z,100243.80
2023-03-06T15:01:15.960Z,100240.38
2023-03-06T15:03:55.811Z,100241.34
2023-03-06T15:06:35.423Z,100238.38
2023-03-06T15:09:30.413Z,100235.02
2023-03-06T15:12:21.336Z,100233.09
2023-03-06T15:15:28.071Z,100234.30
2023-03-06T15:17:56.837Z,100231.49
2023-03-06T15:21:06.601Z,100232.80
2023-03-06T15:23:42.524Z,100233.20
2023-03-06T15:26:29.121Z,100244.31
2023-03-06T15:29:11.140Z,100242.59
2023-03-06T15:31:43.450Z,100245.33
2023-03-06T15:34:17.356Z,100238.34
2023-03-06T15:36:57.796Z,100238.13
2023-03-06T15:39:40.459Z,100238.87
2023-03-06T15:42:25.114Z,100244.61
2023-03-06T15:44:58.216Z,100243.77
2023-03-06T15:47:26.836Z,100244.02
2023-03-06T15:49:55.459Z,100249.54
2023-03-06T15:52:24.112Z,100246.02
2023-03-06T15:54:52.800Z,100246.76
2023-03-06T15:57:25.378Z,100249.64
2023-03-06T15:59:54.508Z,100248.45
2023-03-06T16:02:24.533Z,100254.34
2023-03-06T16:04:53.619Z,100255.23
2023-03-06T16:07:22.079Z,100257.01
2023-03-06T16:09:50.554Z,100260.23
2023-03-06T16:12:22.775Z,100261.13
2023-03-06T16:14:51.279Z,100263.77
2023-03-06T16:17:19.691Z,100269.95
2023-03-06T16:19:48.234Z,100270.06
2023-03-06T16:22:16.598Z,100273.21
2023-03-06T16:24:44.986Z,100276.36
2023-03-06T16:27:19.312Z,100273.61
2023-03-06T16:29:47.764Z,100276.25
2023-03-06T16:32:16.201Z,100280.76
2023-03-06T16:34:44.653Z,100283.87
2023-03-06T16:37:14.108Z,100287.32
2023-03-06T16:39:42.690Z,100286.48
2023-03-06T16:42:11.612Z,100286.40
2023-03-06T16:44:40.106Z,100288.23
2023-03-06T16:47:12.486Z,100288.32
2023-03-06T16:49:41.068Z,100290.53
2023-03-06T16:52:12.091Z,100290.64
2023-03-06T16:54:42.833Z,100296.45
2023-03-06T16:57:15.479Z,100296.77
2023-03-06T16:59:44.745Z,100297.62
2023-03-06T17:02:13.230Z,100302.14
2023-03-06T17:04:41.825Z,100301.55
2023-03-06T17:07:10.276Z,100302.03
2023-03-06T17:09:38.777Z,100304.30
2023-03-06T17:12:07.742Z,100302.44
2023-03-06T17:14:38.544Z,100298.64
2023-03-06T17:17:07.205Z,100294.66
2023-03-06T17:19:35.690Z,100290.67
2023-03-06T17:22:04.265Z,100292.89
2023-03-06T17:24:32.695Z,100294.73
2023-03-06T17:27:01.125Z,100297.59
2023-03-06T17:29:29.650Z,100298.17
2023-03-06T17:31:58.151Z,100300.02
2023-03-06T17:34:26.748Z,100301.17
2023-03-06T17:36:56.276Z,100302.00
2023-03-06T17:39:25.072Z,100303.90
2023-03-06T17:41:53.469Z,100302.20
2023-03-06T17:44:21.945Z,100305.28
2023-03-06T17:46:51.088Z,100305.35
2023-03-06T17:49:21.707Z,100307.17
2023-03-06T17:51:50.084Z,100310.08
2023-03-06T17:54:18.812Z,100308.23
2023-03-06T17:56:47.363Z,100304.79
2023-03-06T17:59:16.045Z,100309.12
2023-03-06T18:01:45.293Z,100310.08
2023-03-06T18:04:13.880Z,100309.83
2023-03-06T18:06:42.320Z,100309.56
2023-03-06T18:09:10.883Z,100313.33
2023-03-06T18:11:39.419Z,100314.28
2023-03-06T18:14:09.694Z,100317.33
2023-03-06T18:16:38.573Z,100319.04
2023-03-06T18:19:07.082Z,100320.16
2023-03-06T18:21:35.587Z,100321.44
2023-03-06T18:24:05.504Z,100321.67
2023-03-06T18:26:36.841Z,100319.10
2023-03-06T18:29:09.394Z,100315.44
2023-03-06T18:31:41.628Z,100319.16
2023-03-06T18:34:15.674Z,100318.48
2023-03-06T18:36:47.418Z,100318.84
2023-03-06T18:39:16.144Z,100319.20
2023-03-06T18:41:47.013Z,100316.42
2023-03-06T18:44:17.537Z,100320.16
2023-03-06T18:46:49.486Z,100324.22
2023-03-06T18:55:54.462Z,100319.14
2023-03-06T18:58:39.786Z,100323.91
2023-03-06T19:01:31.402Z,100323.23
2023-03-06T19:04:04.378Z,100329.06
2023-03-06T19:06:35.405Z,100328.02
2023-03-06T19:09:12.009Z,100324.33
2023-03-06T19:11:42.904Z,100319.94
2023-03-06T19:14:11.602Z,100309.54
2023-03-06T19:16:40.183Z,100310.94
2023-03-06T19:19:08.787Z,100307.42
2023-03-06T19:21:37.313Z,100307.06
2023-03-06T19:24:07.813Z,100304.78
2023-03-06T19:26:36.260Z,100303.55
2023-03-06T19:29:04.857Z,100303.02
2023-03-06T19:31:35.447Z,100306.55
2023-03-06T19:34:07.227Z,100304.62
2023-03-06T19:36:55.624Z,100304.45
2023-03-06T19:39:27.181Z,100307.79
2023-03-06T19:41:57.761Z,100306.91
2023-03-06T19:44:27.752Z,100304.09
2023-03-06T19:46:56.160Z,100304.42
2023-03-06T19:49:24.667Z,100303.88
2023-03-06T19:51:53.299Z,100306.17
2023-03-06T19:54:23.579Z,100302.64
2023-03-06T19:56:52.095Z,100298.92
2023-03-06T19:59:20.575Z,100300.34
2023-03-06T20:01:49.376Z,100305.06
2023-03-06T20:04:18.012Z,100306.08
2023-03-06T20:06:49.977Z,100302.37
2023-03-06T20:09:19.615Z,100299.18
2023-03-06T20:11:48.209Z,100299.69
2023-03-06T20:14:18.535Z,100298.98
2023-03-06T20:16:46.991Z,100301.80
2023-03-06T20:19:15.799Z,100305.15
2023-03-06T20:21:44.899Z,100303.55
2023-03-06T20:24:17.126Z,100304.09
2023-03-06T20:26:47.283Z,100299.69
2023-03-06T20:29:15.758Z,100300.91
2023-03-06T20:31:46.598Z,100295.79
2023-03-06T20:34:15.949Z,100292.28
2023-03-06T20:36:46.326Z,100291.55
2023-03-06T20:39:24.799Z,100286.41
2023-03-06T20:42:00.504Z,100286.06
2023-03-06T20:44:32.367Z,100284.80
2023-03-06T20:47:03.536Z,100282.15
2023-03-06T20:49:38.907Z,100280.77
2023-03-06T20:52:09.454Z,100275.84
2023-03-06T20:54:41.205Z,100275.11
2023-03-06T20:57:12.068Z,100272.83
2023-03-06T20:59:42.979Z,100265.46
2023-03-06T21:02:15.996Z,100259.86
2023-03-06T21:04:47.996Z,100257.05
2023-03-06T21:07:17.180Z,100253.02
2023-03-06T21:09:46.945Z,100245.65
2023-03-06T21:12:20.124Z,100239.20
2023-03-06T21:14:50.704Z,100239.74
2023-03-06T21:17:19.156Z,100237.46
2023-03-06T21:19:48.552Z,100232.55
2023-03-06T21:22:17.042Z,100228.34
2023-03-06T21:24:45.704Z,100224.48
2023-03-06T21:27:14.243Z,100216.92
2023-03-06T21:29:44.806Z,100209.58
2023-03-06T21:32:13.421Z,100209.40
2023-03-06T21:34:42.158Z,100207.64
2023-03-06T21:37:10.638Z,100204.11
2023-03-06T21:39:39.050Z,100194.77
2023-03-06T21:42:07.788Z,100193.71
2023-03-06T21:44:36.262Z,100197.92
2023-03-06T21:47:05.062Z,100196.88
2023-03-06T21:49:33.550Z,100202.14
2023-03-06T21:53:50.783Z,100195.30
2023-03-06T21:56:22.390Z,100195.12
2023-03-06T21:58:51.314Z,100189.67
2023-03-06T22:01:29.022Z,100189.35
2023-03-06T22:03:58.635Z,100192.17
2023-03-06T22:06:29.905Z,100194.96
2023-03-06T22:09:00.190Z,100200.39
2023-03-06T22:11:37.084Z,100199.33
2023-03-06T22:14:06.732Z,100196.50
2023-03-06T22:16:35.356Z,100201.77
2023-03-06T22:19:04.138Z,100204.89
2023-03-06T22:21:32.922Z,100202.06
2023-03-06T22:24:01.489Z,100203.99
2023-03-06T22:26:31.694Z,100202.43
2023-03-06T22:29:03.390Z,100205.77
2023-03-06T22:31:32.029Z,100204.05
2023-03-06T22:34:01.852Z,100203.16
2023-03-06T22:36:31.678Z,100205.98
2023-03-06T22:39:03.312Z,100207.21
2023-03-06T22:41:32.359Z,100204.59
2023-03-06T22:44:03.128Z,100203.02
2023-03-06T22:46:32.683Z,100200.73
2023-03-06T22:49:02.134Z,100194.75
2023-03-06T22:51:30.899Z,100193.35
2023-03-06T22:53:59.541Z,100192.30
2023-03-06T22:56:28.690Z,100190.18
2023-03-06T22:58:58.133Z,100195.81
2023-03-06T23:01:33.570Z,100193.17
2023-03-06T23:04:04.958Z,100189.66
2023-03-06T23:06:39.965Z,100187.38
2023-03-06T23:09:16.092Z,100189.48
2023-03-06T23:12:03.035Z,100185.80
2023-03-06T23:14:51.356Z,100177.89
2023-03-06T23:17:38.599Z,100174.89
2023-03-06T23:20:25.426Z,100159.42
2023-03-06T23:23:12.399Z,100152.39
2023-03-06T23:25:44.358Z,100153.11
2023-03-06T23:28:12.942Z,100154.70
2023-03-06T23:30:42.502Z,100149.06
2023-03-06T23:33:11.460Z,100142.39
2023-03-06T23:35:40.063Z,100140.63
2023-03-06T23:38:08.632Z,100141.33
2023-03-06T23:40:38.630Z,100140.97
2023-03-06T23:43:07.256Z,100143.80
2023-03-06T23:45:35.765Z,100140.98
2023-03-06T23:48:08.175Z,100142.91
2023-03-06T23:50:41.251Z,100147.48
2023-03-06T23:53:09.759Z,100147.48
2023-03-06T23:55:43.293Z,100146.23
2023-03-06T23:58:12.830Z,100140.61
